createdAt,value
2019-05-16T00:00:36.902Z,9.90
2019-05-16T00:04:03.336Z,9.90
2019-05-16T00:06:03.003Z,9.90
2019-05-16T00:08:39.642Z,9.90
2019-05-16T00:11:13.340Z,9.80
2019-05-16T00:13:48.886Z,9.70
2019-05-16T00:16:22.104Z,9.70
2019-05-16T00:18:55.655Z,9.70
2019-05-16T00:21:29.273Z,9.80
2019-05-16T00:24:02.821Z,9.70
2019-05-16T00:26:38.626Z,9.70
2019-05-16T00:29:11.579Z,9.80
2019-05-16T00:31:45.167Z,9.80
2019-05-16T00:34:18.939Z,9.80
2019-05-16T00:36:52.480Z,9.90
2019-05-16T00:39:31.202Z,9.90
2019-05-16T00:42:05.294Z,9.90
2019-05-16T00:44:38.874Z,9.80
2019-05-16T00:47:12.513Z,9.90
2019-05-16T00:49:48.008Z,9.90
2019-05-16T00:52:21.274Z,9.90
2019-05-16T00:54:54.747Z,9.90
2019-05-16T00:57:30.188Z,9.80
2019-05-16T01:00:04.429Z,9.80
2019-05-16T01:02:38.260Z,9.80
2019-05-16T01:05:14.444Z,9.90
2019-05-16T01:07:48.078Z,9.90
2019-05-16T01:10:22.232Z,9.80
2019-05-16T01:12:55.810Z,9.90
2019-05-16T01:15:29.385Z,9.90
2019-05-16T01:18:03.005Z,10.00
2019-05-16T01:20:38.584Z,9.90
2019-05-16T01:23:11.859Z,9.90
2019-05-16T01:25:48.669Z,10.00
2019-05-16T01:28:41.870Z,9.90
2019-05-16T01:31:33.011Z,9.90
2019-05-16T01:34:12.376Z,10.00
2019-05-16T01:37:05.355Z,9.90
2019-05-16T01:39:39.009Z,10.00
2019-05-16T01:42:12.823Z,9.80
2019-05-16T01:44:52.795Z,9.80
2019-05-16T01:47:28.662Z,9.70
2019-05-16T01:50:01.600Z,9.70
2019-05-16T01:52:35.202Z,9.70
2019-05-16T01:55:09.148Z,9.80
2019-05-16T01:57:42.842Z,9.90
2019-05-16T02:00:23.470Z,9.80
2019-05-16T02:05:33.781Z,9.80
2019-05-16T02:08:08.899Z,9.90
2019-05-16T02:10:48.733Z,9.80
2019-05-16T02:13:23.351Z,9.80
2019-05-16T02:15:59.046Z,9.70
2019-05-16T02:18:32.169Z,9.60
2019-05-16T02:21:07.741Z,9.60
2019-05-16T02:26:49.301Z,9.70
2019-05-16T02:29:23.456Z,9.70
2019-05-16T02:34:51.319Z,9.70
2019-05-16T02:37:29.523Z,9.70
2019-05-16T02:40:01.294Z,9.70
2019-05-16T02:42:34.173Z,9.60
2019-05-16T02:45:11.097Z,9.70
2019-05-16T02:47:44.875Z,9.70
2019-05-16T02:50:21.875Z,9.80
2019-05-16T02:52:53.933Z,9.70
2019-05-16T02:55:30.552Z,9.70
2019-05-16T02:58:02.830Z,9.70
2019-05-16T03:00:42.617Z,9.70
2019-05-16T03:06:21.345Z,9.70
2019-05-16T03:08:56.435Z,9.70
2019-05-16T03:11:31.883Z,9.70
2019-05-16T03:14:06.494Z,9.70
2019-05-16T03:16:42.041Z,9.70
2019-05-16T03:19:21.427Z,9.80
2019-05-16T03:21:55.530Z,9.70
2019-05-16T03:24:30.982Z,9.70
2019-05-16T03:27:04.330Z,9.60
2019-05-16T03:29:37.924Z,9.50
2019-05-16T03:32:14.505Z,9.60
2019-05-16T03:34:55.487Z,9.60
2019-05-16T03:37:30.747Z,9.60
2019-05-16T03:40:18.075Z,9.80
2019-05-16T03:42:51.858Z,9.80
2019-05-16T03:45:25.882Z,9.80
2019-05-16T03:48:02.754Z,9.70
2019-05-16T03:50:34.736Z,9.80
2019-05-16T03:53:11.361Z,9.80
2019-05-16T03:55:43.510Z,9.70
2019-05-16T03:58:17.074Z,9.80
2019-05-16T04:01:02.761Z,9.80
2019-05-16T04:03:36.738Z,9.80
2019-05-16T04:06:11.853Z,9.80
2019-05-16T04:08:52.447Z,9.70
2019-05-16T04:11:32.176Z,9.80
2019-05-16T04:14:10.809Z,9.80
2019-05-16T04:16:44.580Z,10.00
2019-05-16T04:19:21.133Z,9.90
2019-05-16T04:21:54.356Z,9.90
2019-05-16T04:24:31.605Z,9.80
2019-05-16T04:27:12.027Z,10.00
2019-05-16T04:29:46.435Z,10.00
2019-05-16T04:32:20.804Z,10.00
2019-05-16T04:34:55.856Z,10.10
2019-05-16T04:37:42.729Z,10.00
2019-05-16T04:40:16.532Z,10.00
2019-05-16T04:42:51.313Z,10.00
2019-05-16T04:45:25.050Z,10.10
2019-05-16T04:48:02.068Z,10.10
2019-05-16T04:50:35.663Z,10.10
2019-05-16T04:53:11.487Z,10.20
2019-05-16T04:55:44.453Z,10.30
2019-05-16T04:58:22.567Z,10.10
2019-05-16T05:00:54.623Z,10.00
2019-05-16T05:03:31.267Z,10.10
2019-05-16T05:06:03.515Z,10.00
2019-05-16T05:08:50.488Z,10.10
2019-05-16T05:11:12.603Z,10.20
2019-05-16T05:13:46.309Z,10.00
2019-05-16T05:16:20.477Z,10.00
2019-05-16T05:18:54.160Z,9.90
2019-05-16T05:21:27.803Z,10.00
2019-05-16T05:24:01.482Z,10.20
2019-05-16T05:26:38.355Z,10.10
2019-05-16T05:29:11.981Z,9.90
2019-05-16T05:31:45.886Z,9.90
2019-05-16T05:34:19.890Z,10.00
2019-05-16T05:36:53.551Z,9.90
2019-05-16T05:39:27.090Z,9.80
2019-05-16T05:42:00.730Z,9.80
2019-05-16T05:44:34.266Z,9.80
2019-05-16T05:47:07.849Z,9.80
2019-05-16T05:49:41.406Z,9.90
2019-05-16T05:52:15.125Z,9.90
2019-05-16T05:54:50.258Z,9.80
2019-05-16T05:57:24.019Z,9.90
2019-05-16T05:59:57.567Z,9.90
2019-05-16T06:02:31.582Z,10.00
2019-05-16T06:05:10.705Z,9.90
2019-05-16T06:07:44.402Z,9.80
2019-05-16T06:10:19.900Z,9.80
2019-05-16T06:12:53.333Z,9.80
2019-05-16T06:15:27.139Z,9.70
2019-05-16T06:18:00.835Z,9.90
2019-05-16T06:20:34.441Z,10.00
2019-05-16T06:23:11.098Z,10.10
2019-05-16T06:25:45.063Z,10.00
2019-05-16T06:28:20.758Z,9.80
2019-05-16T06:30:54.648Z,9.90
2019-05-16T06:33:30.503Z,9.90
2019-05-16T06:36:04.214Z,9.90
2019-05-16T06:38:40.132Z,10.10
2019-05-16T06:41:14.356Z,10.10
2019-05-16T06:43:47.913Z,10.30
2019-05-16T06:46:21.478Z,10.30
2019-05-16T06:48:55.153Z,10.20
2019-05-16T06:51:30.582Z,10.30
2019-05-16T06:54:04.238Z,10.20
2019-05-16T06:56:40.149Z,10.30
2019-05-16T06:59:14.582Z,10.40
2019-05-16T07:01:50.061Z,10.50
2019-05-16T07:04:23.732Z,10.30
2019-05-16T07:07:02.034Z,10.30
2019-05-16T07:09:33.049Z,10.20
2019-05-16T07:12:06.845Z,10.40
2019-05-16T07:14:40.818Z,10.30
2019-05-16T07:17:14.515Z,10.60
2019-05-16T07:19:54.116Z,10.60
2019-05-16T07:22:27.720Z,10.50
2019-05-16T07:25:01.928Z,10.60
2019-05-16T07:27:40.079Z,10.70
2019-05-16T07:30:23.512Z,10.60
2019-05-16T07:32:57.253Z,10.80
2019-05-16T07:35:30.856Z,10.70
2019-05-16T07:38:04.502Z,10.50
2019-05-16T07:40:40.831Z,10.80
2019-05-16T07:46:27.344Z,11.00
2019-05-16T07:51:40.810Z,11.10
2019-05-16T07:54:14.405Z,10.80
2019-05-16T07:56:57.272Z,11.10
2019-05-16T07:59:23.319Z,11.00
2019-05-16T08:01:57.070Z,10.90
2019-05-16T08:04:30.780Z,10.80
2019-05-16T08:07:05.852Z,11.00
2019-05-16T08:09:39.766Z,11.00
2019-05-16T08:12:13.459Z,11.30
2019-05-16T08:14:49.994Z,11.60
2019-05-16T08:17:22.510Z,11.50
2019-05-16T08:19:56.138Z,11.80
2019-05-16T08:22:30.644Z,12.20
2019-05-16T08:25:05.502Z,12.30
2019-05-16T08:27:41.402Z,12.40
2019-05-16T08:30:14.846Z,12.60
2019-05-16T08:32:52.410Z,12.70
2019-05-16T08:35:23.662Z,12.70
2019-05-16T08:38:01.773Z,13.00
2019-05-16T08:40:59.674Z,12.90
2019-05-16T08:43:11.776Z,12.90
2019-05-16T08:45:45.451Z,12.90
2019-05-16T08:50:55.141Z,13.10
2019-05-16T08:53:31.645Z,12.80
2019-05-16T08:56:05.218Z,13.00
2019-05-16T08:58:41.037Z,13.00
2019-05-16T09:01:14.923Z,13.30
2019-05-16T09:03:51.692Z,13.20
2019-05-16T09:06:24.134Z,13.60
2019-05-16T09:09:12.284Z,13.70
2019-05-16T09:10:11.187Z,12.70
2019-05-16T09:11:44.986Z,13.90
2019-05-16T09:14:11.472Z,13.80
2019-05-16T09:16:47.914Z,13.50
2019-05-16T09:19:22.012Z,13.90
2019-05-16T09:21:58.008Z,14.30
2019-05-16T09:24:33.261Z,14.60
2019-05-16T09:27:13.272Z,14.50
2019-05-16T09:29:42.814Z,14.70
2019-05-16T09:32:21.225Z,14.90
2019-05-16T09:34:52.542Z,14.60
2019-05-16T09:37:29.573Z,14.20
2019-05-16T09:40:03.673Z,14.20
2019-05-16T09:42:38.754Z,14.10
2019-05-16T09:45:13.155Z,14.00
2019-05-16T09:47:48.418Z,13.80
2019-05-16T09:50:23.413Z,14.00
2019-05-16T09:52:58.058Z,13.90
2019-05-16T09:55:41.353Z,14.00
2019-05-16T09:58:18.033Z,14.30
2019-05-16T10:00:51.557Z,14.30
2019-05-16T10:03:27.257Z,14.30
2019-05-16T10:06:03.402Z,14.00
2019-05-16T10:08:37.526Z,14.10
2019-05-16T10:11:11.282Z,14.60
2019-05-16T10:13:47.102Z,14.70
2019-05-16T10:16:21.020Z,14.90
2019-05-16T10:18:56.791Z,14.90
2019-05-16T10:21:30.953Z,15.00
2019-05-16T10:24:04.630Z,14.70
2019-05-16T10:26:38.230Z,14.80
2019-05-16T10:29:17.993Z,15.00
2019-05-16T10:31:53.235Z,15.20
2019-05-16T10:34:26.623Z,15.20
2019-05-16T10:37:00.441Z,15.00
2019-05-16T10:39:34.326Z,14.70
2019-05-16T10:42:23.786Z,15.00
2019-05-16T10:44:48.415Z,15.30
2019-05-16T10:47:22.570Z,15.50
2019-05-16T10:49:56.554Z,15.90
2019-05-16T10:52:30.632Z,16.20
2019-05-16T10:55:07.890Z,16.30
2019-05-16T10:57:40.664Z,16.50
2019-05-16T11:00:27.340Z,16.40
2019-05-16T11:02:52.454Z,15.70
2019-05-16T11:05:33.642Z,15.00
2019-05-16T11:08:02.430Z,14.80
2019-05-16T11:10:37.321Z,14.90
2019-05-16T11:13:10.948Z,15.10
2019-05-16T11:15:44.603Z,15.40
2019-05-16T11:18:18.761Z,15.60
2019-05-16T11:20:53.875Z,15.70
2019-05-16T11:23:30.848Z,15.90
2019-05-16T11:26:03.675Z,15.90
2019-05-16T11:28:40.819Z,16.00
2019-05-16T11:31:14.409Z,15.90
2019-05-16T11:33:48.014Z,16.00
2019-05-16T11:36:21.624Z,15.70
2019-05-16T11:39:00.978Z,16.40
2019-05-16T11:41:30.657Z,16.50
2019-05-16T11:44:06.587Z,16.40
2019-05-16T11:46:40.918Z,16.40
2019-05-16T11:49:16.609Z,16.50
2019-05-16T11:51:49.898Z,16.40
2019-05-16T11:54:23.447Z,16.50
2019-05-16T11:56:57.159Z,16.60
2019-05-16T11:59:33.022Z,16.70
2019-05-16T12:02:06.584Z,16.80
2019-05-16T12:04:41.177Z,16.80
2019-05-16T12:07:19.418Z,16.70
2019-05-16T12:09:55.731Z,16.60
2019-05-16T12:12:28.374Z,16.60
2019-05-16T12:15:01.972Z,16.50
2019-05-16T12:17:37.426Z,16.50
2019-05-16T12:20:11.137Z,16.40
2019-05-16T12:22:45.909Z,16.60
2019-05-16T12:25:20.454Z,16.50
2019-05-16T12:28:13.507Z,17.30
2019-05-16T12:30:47.492Z,17.60
2019-05-16T12:33:22.584Z,17.60
2019-05-16T12:35:57.536Z,17.60
2019-05-16T12:38:32.529Z,17.00
2019-05-16T12:41:07.160Z,16.90
2019-05-16T12:43:48.890Z,16.80
2019-05-16T12:46:17.105Z,16.60
2019-05-16T12:48:51.913Z,16.70
2019-05-16T12:51:26.430Z,16.80
2019-05-16T12:54:00.714Z,16.90
2019-05-16T12:56:34.312Z,16.80
2019-05-16T12:59:07.962Z,17.10
2019-05-16T13:04:33.475Z,17.40
2019-05-16T13:07:09.221Z,17.20
2019-05-16T13:09:43.310Z,17.50
2019-05-16T13:12:17.544Z,17.70
2019-05-16T13:14:55.162Z,17.60
2019-05-16T13:17:29.806Z,17.60
2019-05-16T13:20:03.687Z,17.50
2019-05-16T13:22:38.623Z,17.50
2019-05-16T13:25:20.204Z,17.50
2019-05-16T13:27:54.314Z,17.60
2019-05-16T13:30:31.166Z,17.60
2019-05-16T13:33:07.007Z,17.50
2019-05-16T13:35:40.753Z,17.60
2019-05-16T13:38:17.245Z,17.70
2019-05-16T13:40:51.611Z,17.80
2019-05-16T13:43:37.460Z,18.00
2019-05-16T13:46:10.688Z,18.10
2019-05-16T13:48:44.351Z,17.90
2019-05-16T13:51:19.147Z,18.00
2019-05-16T13:53:53.101Z,18.00
2019-05-16T13:56:27.430Z,18.10
2019-05-16T13:59:01.102Z,18.20
2019-05-16T14:57:44.208Z,17.70
2019-05-16T15:00:18.949Z,17.80
2019-05-16T15:02:52.940Z,17.90
2019-05-16T15:05:26.928Z,18.00
2019-05-16T15:08:00.844Z,18.10
2019-05-16T15:10:34.497Z,18.20
2019-05-16T15:13:08.373Z,18.00
2019-05-16T15:15:42.214Z,19.00
2019-05-16T15:18:17.658Z,19.90
2019-05-16T15:20:52.113Z,20.60
2019-05-16T15:23:28.361Z,21.00
2019-05-16T15:26:01.441Z,21.60
2019-05-16T15:28:38.078Z,22.40
2019-05-16T15:31:12.151Z,22.90
2019-05-16T15:33:47.606Z,23.30
2019-05-16T15:36:21.756Z,23.60
2019-05-16T15:41:47.092Z,24.20
2019-05-16T15:44:20.756Z,22.90
2019-05-16T15:46:56.652Z,21.60
2019-05-16T15:49:29.661Z,22.10
2019-05-16T15:52:08.322Z,22.80
2019-05-16T15:54:46.886Z,23.30
2019-05-16T15:57:20.699Z,23.80
2019-05-16T15:59:54.362Z,23.00
2019-05-16T16:02:28.102Z,22.40
2019-05-16T16:05:01.913Z,22.00
2019-05-16T16:10:27.009Z,21.20
2019-05-16T16:16:20.622Z,20.40
2019-05-16T16:18:57.282Z,20.00
2019-05-16T16:21:30.404Z,19.70
2019-05-16T16:24:05.815Z,19.10
2019-05-16T16:26:39.496Z,18.90
2019-05-16T16:29:13.360Z,18.60
2019-05-16T16:31:47.760Z,18.50
2019-05-16T16:34:22.879Z,18.40
2019-05-16T16:36:57.108Z,18.30
2019-05-16T16:39:37.808Z,18.20
2019-05-16T17:34:51.014Z,16.70
2019-05-16T17:37:27.816Z,16.60
2019-05-16T17:40:01.042Z,16.60
2019-05-16T17:42:37.179Z,16.60
2019-05-16T17:45:12.474Z,16.50
2019-05-16T17:47:46.681Z,16.40
2019-05-16T17:50:21.781Z,16.50
2019-05-16T17:52:57.811Z,16.40
2019-05-16T17:55:31.973Z,16.30
2019-05-16T17:58:08.748Z,16.30
2019-05-16T18:00:41.631Z,16.20
2019-05-16T18:03:17.568Z,16.20
2019-05-16T18:05:52.397Z,16.20
2019-05-16T18:08:27.082Z,16.10
2019-05-16T18:11:01.120Z,16.10
2019-05-16T18:13:36.915Z,16.10
2019-05-16T18:16:10.164Z,16.10
2019-05-16T18:18:43.952Z,16.00
2019-05-16T18:21:17.891Z,16.10
2019-05-16T18:23:51.632Z,16.00
2019-05-16T18:26:26.840Z,16.00
2019-05-16T18:29:00.511Z,16.00
2019-05-16T18:31:34.247Z,15.90
2019-05-16T18:34:07.871Z,15.90
2019-05-16T18:36:41.562Z,15.90
2019-05-16T18:39:15.513Z,15.80
2019-05-16T18:41:49.325Z,15.80
2019-05-16T18:44:23.216Z,15.70
2019-05-16T18:47:06.625Z,15.70
2019-05-16T18:49:33.134Z,15.70
2019-05-16T18:52:07.050Z,15.70
2019-05-16T18:54:42.792Z,15.70
2019-05-16T18:57:17.587Z,15.70
2019-05-16T18:59:51.864Z,15.70
2019-05-16T19:02:27.267Z,15.60
2019-05-16T19:05:01.373Z,15.60
2019-05-16T19:07:36.929Z,15.60
2019-05-16T19:10:11.893Z,15.50
2019-05-16T19:12:47.713Z,15.40
2019-05-16T19:15:21.463Z,15.40
2019-05-16T19:17:58.444Z,15.30
2019-05-16T19:20:31.232Z,15.30
2019-05-16T19:23:07.287Z,15.20
2019-05-16T19:25:40.652Z,15.20
2019-05-16T19:28:14.696Z,15.10
2019-05-16T19:30:49.031Z,15.10
2019-05-16T19:33:23.445Z,15.00
2019-05-16T19:35:57.143Z,15.10
2019-05-16T19:38:31.079Z,15.00
2019-05-16T19:41:08.250Z,15.00
2019-05-16T19:43:42.034Z,14.90
2019-05-16T19:46:16.052Z,14.90
2019-05-16T19:48:49.647Z,14.90
2019-05-16T19:51:27.170Z,14.80
2019-05-16T19:54:01.063Z,14.80
2019-05-16T19:56:37.362Z,14.80
2019-05-16T19:59:10.180Z,14.80
2019-05-16T20:01:46.391Z,14.70
2019-05-16T20:04:20.099Z,14.70
2019-05-16T20:06:53.725Z,14.70
2019-05-16T20:11:50.728Z,14.70
2019-05-16T20:14:24.570Z,14.60
2019-05-16T20:16:58.706Z,14.60
2019-05-16T20:19:33.296Z,14.60
2019-05-16T20:22:08.383Z,14.60
2019-05-16T20:24:43.949Z,14.50
2019-05-16T20:27:19.525Z,14.40
2019-05-16T20:29:56.395Z,14.20
2019-05-16T20:32:30.238Z,14.10
2019-05-16T20:35:09.002Z,14.00
2019-05-16T20:37:42.141Z,14.00
2019-05-16T20:40:17.359Z,14.10
2019-05-16T20:42:51.050Z,14.10
2019-05-16T20:45:27.462Z,14.20
2019-05-16T20:48:10.793Z,14.10
2019-05-16T20:50:36.972Z,14.10
2019-05-16T20:53:10.875Z,14.00
2019-05-16T20:55:46.924Z,13.90
2019-05-16T20:58:20.783Z,13.90
2019-05-16T21:01:00.755Z,14.00
2019-05-16T21:03:30.958Z,14.00
2019-05-16T21:06:08.532Z,14.10
2019-05-16T21:08:41.501Z,13.90
2019-05-16T21:11:17.146Z,13.90
2019-05-16T21:13:51.304Z,13.90
2019-05-16T21:16:26.874Z,13.60
2019-05-16T21:19:00.705Z,13.50
2019-05-16T21:21:36.647Z,13.60
2019-05-16T21:24:09.752Z,13.70
2019-05-16T21:26:46.173Z,13.70
2019-05-16T21:29:21.608Z,13.50
2019-05-16T21:31:56.607Z,13.40
2019-05-16T21:34:30.694Z,13.50
2019-05-16T21:37:13.813Z,13.50
2019-05-16T21:39:39.851Z,13.50
2019-05-16T21:42:16.501Z,13.60
2019-05-16T21:44:49.784Z,13.60
2019-05-16T21:47:23.473Z,13.60
2019-05-16T21:49:58.842Z,13.70
2019-05-16T21:52:32.973Z,13.70
2019-05-16T21:55:10.332Z,13.70
2019-05-16T21:57:44.110Z,13.50
2019-05-16T22:00:32.902Z,13.50
2019-05-16T22:03:08.301Z,13.40
2019-05-16T22:05:42.639Z,13.40
2019-05-16T22:08:16.893Z,13.40
2019-05-16T22:10:51.564Z,13.50
2019-05-16T22:13:25.209Z,13.50
2019-05-16T22:15:59.810Z,13.50
2019-05-16T22:18:33.473Z,13.50
2019-05-16T22:21:07.719Z,13.50
2019-05-16T22:23:41.935Z,13.50
2019-05-16T22:26:16.790Z,13.40
2019-05-16T22:28:51.395Z,13.40
2019-05-16T22:31:26.929Z,13.50
2019-05-16T22:34:00.380Z,13.50
2019-05-16T22:36:34.172Z,13.50
2019-05-16T22:39:10.122Z,13.40
2019-05-16T22:41:46.595Z,13.50
2019-05-16T22:44:20.119Z,13.40
2019-05-16T22:46:53.679Z,13.40
2019-05-16T22:49:27.555Z,13.50
2019-05-16T22:52:01.133Z,13.50
2019-05-16T22:54:36.877Z,13.40
2019-05-16T22:57:10.093Z,13.30
2019-05-16T22:59:43.690Z,13.30
2019-05-16T23:02:17.360Z,13.40
2019-05-16T23:04:51.015Z,13.50
2019-05-16T23:07:27.287Z,13.50
2019-05-16T23:10:17.270Z,13.30
2019-05-16T23:13:07.872Z,13.40
2019-05-16T23:15:41.569Z,13.50
2019-05-16T23:18:17.110Z,13.50
2019-05-16T23:20:50.640Z,13.60
2019-05-16T23:23:26.428Z,13.50
2019-05-16T23:26:17.205Z,13.60
2019-05-16T23:28:50.937Z,13.60
2019-05-16T23:31:26.968Z,13.50
2019-05-16T23:34:00.377Z,13.60
2019-05-16T23:36:36.920Z,13.60
2019-05-16T23:39:10.291Z,13.50
2019-05-16T23:41:43.978Z,13.30
2019-05-16T23:44:17.682Z,13.20
2019-05-16T23:46:51.297Z,13.10
2019-05-16T23:49:27.363Z,13.10
2019-05-16T23:52:00.314Z,13.00
2019-05-16T23:54:34.011Z,13.00
2019-05-16T23:57:07.619Z,13.10
2019-05-16T23:59:41.281Z,13.20
